Red River Army Depot, Texas
Current Conditions -  °F | °C
As of 5:53 AM on Sunday 21 Dec 2014 (Local Time) from KTXK Reporting Station
Haze Haze  
Wind Chill:   Ceiling: 4900
Heat Index:   Visibility: 3mi
Dew Point:   Wind: 5mph
Humidity: 100%   Direction: 70°ENE
Pressure: 30.16"   Gusts: NA
Location:  33.3633°N, 94.2141°W
Report Text: KTXK 211153Z 07004KT 3SM BR OVC049 02/02 A3016 RMK AO2 SLP213 T00220022 10061 20017 58007
Loading
Personal Weather Stations






























Interactive Weather Map New forecast layout! Learn more

10-Day Weather Forecast

Advertisements
Track Severe Weather on mobile